sensor_id;sensor_type;location;lat;lon;timestamp;temperature;humidity
32839;DHT22;19182;41.820;12.808;2022-10-16T00:01:26;12.40;99.90
32839;DHT22;19182;41.820;12.808;2022-10-16T00:03:53;12.30;99.90
32839;DHT22;19182;41.820;12.808;2022-10-16T00:06:23;12.30;99.90
32839;DHT22;19182;41.820;12.808;2022-10-16T00:08:49;12.20;99.90
32839;DHT22;19182;41.820;12.808;2022-10-16T00:11:21;12.10;99.90
32839;DHT22;19182;41.820;12.808;2022-10-16T00:13:49;12.20;99.90
32839;DHT22;19182;41.820;12.808;2022-10-16T00:16:17;12.20;99.90
32839;DHT22;19182;41.820;12.808;2022-10-16T00:21:17;12.30;99.90
32839;DHT22;19182;41.820;12.808;2022-10-16T00:26:13;12.30;99.90
32839;DHT22;19182;41.820;12.808;2022-10-16T00:28:40;12.30;99.90
32839;DHT22;19182;41.820;12.808;2022-10-16T00:31:12;12.30;99.90
32839;DHT22;19182;41.820;12.808;2022-10-16T00:33:39;12.20;99.90
32839;DHT22;19182;41.820;12.808;2022-10-16T00:36:07;12.30;99.90
32839;DHT22;19182;41.820;12.808;2022-10-16T00:38:33;12.20;99.90
32839;DHT22;19182;41.820;12.808;2022-10-16T00:40:59;12.10;99.90
32839;DHT22;19182;41.820;12.808;2022-10-16T00:49:04;12.00;99.90
32839;DHT22;19182;41.820;12.808;2022-10-16T00:51:31;12.00;99.90
32839;DHT22;19182;41.820;12.808;2022-10-16T00:53:59;12.00;99.90
32839;DHT22;19182;41.820;12.808;2022-10-16T00:56:25;12.00;99.90
32839;DHT22;19182;41.820;12.808;2022-10-16T01:01:17;12.00;99.90
32839;DHT22;19182;41.820;12.808;2022-10-16T01:03:43;12.00;99.90
32839;DHT22;19182;41.820;12.808;2022-10-16T01:06:19;11.90;99.90
32839;DHT22;19182;41.820;12.808;2022-10-16T01:11:32;11.80;99.90
32839;DHT22;19182;41.820;12.808;2022-10-16T01:14:06;11.80;99.90
32839;DHT22;19182;41.820;12.808;2022-10-16T01:16:59;11.70;99.90
32839;DHT22;19182;41.820;12.808;2022-10-16T01:22:05;12.00;99.90
32839;DHT22;19182;41.820;12.808;2022-10-16T01:24:39;12.00;99.90
32839;DHT22;19182;41.820;12.808;2022-10-16T01:27:43;11.90;99.90
32839;DHT22;19182;41.820;12.808;2022-10-16T01:32:41;12.00;99.90
32839;DHT22;19182;41.820;12.808;2022-10-16T01:35:30;12.00;99.90
32839;DHT22;19182;41.820;12.808;2022-10-16T01:38:04;11.90;99.90
32839;DHT22;19182;41.820;12.808;2022-10-16T01:40:34;11.90;99.90
32839;DHT22;19182;41.820;12.808;2022-10-16T01:43:08;11.90;99.90
32839;DHT22;19182;41.820;12.808;2022-10-16T01:45:37;11.90;99.90
32839;DHT22;19182;41.820;12.808;2022-10-16T01:48:05;11.90;99.90
32839;DHT22;19182;41.820;12.808;2022-10-16T01:50:34;11.80;99.90
32839;DHT22;19182;41.820;12.808;2022-10-16T01:53:02;11.90;99.90
32839;DHT22;19182;41.820;12.808;2022-10-16T01:55:35;12.20;99.90
32839;DHT22;19182;41.820;12.808;2022-10-16T01:58:04;12.10;99.90
32839;DHT22;19182;41.820;12.808;2022-10-16T02:00:31;12.10;99.90
32839;DHT22;19182;41.820;12.808;2022-10-16T02:02:58;12.00;99.90
32839;DHT22;19182;41.820;12.808;2022-10-16T02:05:32;12.10;99.90
32839;DHT22;19182;41.820;12.808;2022-10-16T02:08:00;12.10;99.90
32839;DHT22;19182;41.820;12.808;2022-10-16T02:10:28;12.10;99.90
32839;DHT22;19182;41.820;12.808;2022-10-16T02:13:24;12.00;99.90
32839;DHT22;19182;41.820;12.808;2022-10-16T02:18:15;11.90;99.90
32839;DHT22;19182;41.820;12.808;2022-10-16T02:20:53;11.70;99.90
32839;DHT22;19182;41.820;12.808;2022-10-16T02:23:41;11.80;99.90
32839;DHT22;19182;41.820;12.808;2022-10-16T02:26:12;11.90;99.90
32839;DHT22;19182;41.820;12.808;2022-10-16T02:28:45;11.90;99.90
32839;DHT22;19182;41.820;12.808;2022-10-16T02:31:29;11.80;99.90
32839;DHT22;19182;41.820;12.808;2022-10-16T02:33:58;11.70;99.90
32839;DHT22;19182;41.820;12.808;2022-10-16T02:36:26;11.70;99.90
32839;DHT22;19182;41.820;12.808;2022-10-16T02:38:53;11.60;99.90
32839;DHT22;19182;41.820;12.808;2022-10-16T02:41:21;11.60;99.90
32839;DHT22;19182;41.820;12.808;2022-10-16T02:43:47;11.70;99.90
32839;DHT22;19182;41.820;12.808;2022-10-16T02:46:14;11.70;99.90
32839;DHT22;19182;41.820;12.808;2022-10-16T02:48:40;11.70;99.90
32839;DHT22;19182;41.820;12.808;2022-10-16T02:51:06;11.70;99.90
32839;DHT22;19182;41.820;12.808;2022-10-16T02:55:58;11.60;99.90
32839;DHT22;19182;41.820;12.808;2022-10-16T03:03:18;11.50;99.90
32839;DHT22;19182;41.820;12.808;2022-10-16T03:05:44;11.40;99.90
32839;DHT22;19182;41.820;12.808;2022-10-16T03:08:13;11.40;99.90
32839;DHT22;19182;41.820;12.808;2022-10-16T03:15:31;11.40;99.90
32839;DHT22;19182;41.820;12.808;2022-10-16T03:17:58;11.40;99.90
32839;DHT22;19182;41.820;12.808;2022-10-16T03:20:24;11.40;99.90
32839;DHT22;19182;41.820;12.808;2022-10-16T03:25:17;11.50;99.90
32839;DHT22;19182;41.820;12.808;2022-10-16T03:27:43;11.40;99.90
32839;DHT22;19182;41.820;12.808;2022-10-16T03:30:10;11.40;99.90
32839;DHT22;19182;41.820;12.808;2022-10-16T03:32:37;11.50;99.90
32839;DHT22;19182;41.820;12.808;2022-10-16T03:35:03;11.40;99.90
32839;DHT22;19182;41.820;12.808;2022-10-16T03:37:30;11.40;99.90
32839;DHT22;19182;41.820;12.808;2022-10-16T03:39:55;11.30;99.90
32839;DHT22;19182;41.820;12.808;2022-10-16T03:42:21;11.40;99.90
32839;DHT22;19182;41.820;12.808;2022-10-16T03:44:48;11.60;99.90
32839;DHT22;19182;41.820;12.808;2022-10-16T03:52:05;11.30;99.90
32839;DHT22;19182;41.820;12.808;2022-10-16T03:54:31;11.20;99.90
32839;DHT22;19182;41.820;12.808;2022-10-16T03:56:57;11.20;99.90
32839;DHT22;19182;41.820;12.808;2022-10-16T03:59:22;11.20;99.90
32839;DHT22;19182;41.820;12.808;2022-10-16T04:01:48;11.20;99.90
32839;DHT22;19182;41.820;12.808;2022-10-16T04:04:16;11.20;99.90
32839;DHT22;19182;41.820;12.808;2022-10-16T04:06:42;11.20;99.90
32839;DHT22;19182;41.820;12.808;2022-10-16T04:09:08;11.20;99.90
32839;DHT22;19182;41.820;12.808;2022-10-16T04:11:34;11.30;99.90
32839;DHT22;19182;41.820;12.808;2022-10-16T04:14:00;11.20;99.90
32839;DHT22;19182;41.820;12.808;2022-10-16T04:16:26;11.20;99.90
32839;DHT22;19182;41.820;12.808;2022-10-16T04:21:18;11.20;99.90
32839;DHT22;19182;41.820;12.808;2022-10-16T04:26:11;11.10;99.90
32839;DHT22;19182;41.820;12.808;2022-10-16T04:28:37;11.20;99.90
32839;DHT22;19182;41.820;12.808;2022-10-16T04:31:06;11.10;99.90
32839;DHT22;19182;41.820;12.808;2022-10-16T04:33:33;11.20;99.90
32839;DHT22;19182;41.820;12.808;2022-10-16T04:36:00;11.30;99.90
32839;DHT22;19182;41.820;12.808;2022-10-16T04:38:27;11.20;99.90
32839;DHT22;19182;41.820;12.808;2022-10-16T04:43:20;11.20;99.90
32839;DHT22;19182;41.820;12.808;2022-10-16T04:45:47;11.20;99.90
32839;DHT22;19182;41.820;12.808;2022-10-16T04:48:15;11.30;99.90
32839;DHT22;19182;41.820;12.808;2022-10-16T04:50:43;11.30;99.90
32839;DHT22;19182;41.820;12.808;2022-10-16T04:53:09;11.30;99.90
32839;DHT22;19182;41.820;12.808;2022-10-16T04:55:35;11.20;99.90
32839;DHT22;19182;41.820;12.808;2022-10-16T04:58:01;11.30;99.90
32839;DHT22;19182;41.820;12.808;2022-10-16T05:00:27;11.20;99.90
32839;DHT22;19182;41.820;12.808;2022-10-16T05:02:53;11.20;99.90
32839;DHT22;19182;41.820;12.808;2022-10-16T05:05:19;11.30;99.90
32839;DHT22;19182;41.820;12.808;2022-10-16T05:07:46;11.40;99.90
32839;DHT22;19182;41.820;12.808;2022-10-16T05:10:12;11.50;99.90
32839;DHT22;19182;41.820;12.808;2022-10-16T05:12:38;11.50;99.90
32839;DHT22;19182;41.820;12.808;2022-10-16T05:15:04;11.50;99.90
32839;DHT22;19182;41.820;12.808;2022-10-16T05:17:30;11.50;99.90
32839;DHT22;19182;41.820;12.808;2022-10-16T05:19:56;11.50;99.90
32839;DHT22;19182;41.820;12.808;2022-10-16T05:22:22;11.50;99.90
32839;DHT22;19182;41.820;12.808;2022-10-16T05:24:48;11.60;99.90
32839;DHT22;19182;41.820;12.808;2022-10-16T05:27:14;11.50;99.90
32839;DHT22;19182;41.820;12.808;2022-10-16T05:29:45;11.60;99.90
32839;DHT22;19182;41.820;12.808;2022-10-16T05:32:12;11.60;99.90
32839;DHT22;19182;41.820;12.808;2022-10-16T05:39:31;11.50;99.90
32839;DHT22;19182;41.820;12.808;2022-10-16T05:44:23;11.50;99.90
32839;DHT22;19182;41.820;12.808;2022-10-16T05:46:49;11.50;99.90
32839;DHT22;19182;41.820;12.808;2022-10-16T05:49:14;11.50;99.90
32839;DHT22;19182;41.820;12.808;2022-10-16T05:51:41;11.50;99.90
32839;DHT22;19182;41.820;12.808;2022-10-16T05:54:08;11.50;99.90
32839;DHT22;19182;41.820;12.808;2022-10-16T05:56:35;11.70;99.90
32839;DHT22;19182;41.820;12.808;2022-10-16T05:59:00;11.60;99.90
32839;DHT22;19182;41.820;12.808;2022-10-16T06:01:26;11.70;99.90
32839;DHT22;19182;41.820;12.808;2022-10-16T06:03:53;11.70;99.90
32839;DHT22;19182;41.820;12.808;2022-10-16T06:06:23;11.80;99.90
32839;DHT22;19182;41.820;12.808;2022-10-16T06:11:23;12.20;99.90
32839;DHT22;19182;41.820;12.808;2022-10-16T06:13:50;12.40;99.90
32839;DHT22;19182;41.820;12.808;2022-10-16T06:16:16;12.50;99.90
32839;DHT22;19182;41.820;12.808;2022-10-16T06:18:44;13.80;99.90
32839;DHT22;19182;41.820;12.808;2022-10-16T06:21:13;11.80;99.90
32839;DHT22;19182;41.820;12.808;2022-10-16T06:23:40;14.50;99.90
32839;DHT22;19182;41.820;12.808;2022-10-16T06:26:11;15.20;99.90
32839;DHT22;19182;41.820;12.808;2022-10-16T06:28:38;16.10;99.90
32839;DHT22;19182;41.820;12.808;2022-10-16T06:31:05;16.90;99.90
32839;DHT22;19182;41.820;12.808;2022-10-16T06:33:32;17.70;99.90
32839;DHT22;19182;41.820;12.808;2022-10-16T06:36:06;18.30;99.90
32839;DHT22;19182;41.820;12.808;2022-10-16T06:38:34;18.40;99.90
32839;DHT22;19182;41.820;12.808;2022-10-16T06:41:01;18.40;99.90
32839;DHT22;19182;41.820;12.808;2022-10-16T06:43:29;19.50;99.90
32839;DHT22;19182;41.820;12.808;2022-10-16T06:45:59;20.10;99.90
32839;DHT22;19182;41.820;12.808;2022-10-16T06:48:25;20.50;99.90
32839;DHT22;19182;41.820;12.808;2022-10-16T06:53:27;21.80;99.90
32839;DHT22;19182;41.820;12.808;2022-10-16T06:58:20;21.70;99.90
32839;DHT22;19182;41.820;12.808;2022-10-16T07:00:47;21.60;99.90
32839;DHT22;19182;41.820;12.808;2022-10-16T07:03:13;21.50;99.90
32839;DHT22;19182;41.820;12.808;2022-10-16T07:05:43;21.20;99.90
32839;DHT22;19182;41.820;12.808;2022-10-16T07:08:09;21.10;99.90
32839;DHT22;19182;41.820;12.808;2022-10-16T07:10:35;21.30;99.90
32839;DHT22;19182;41.820;12.808;2022-10-16T07:13:01;23.20;99.90
32839;DHT22;19182;41.820;12.808;2022-10-16T07:15:27;22.50;99.90
32839;DHT22;19182;41.820;12.808;2022-10-16T07:17:55;22.40;99.90
32839;DHT22;19182;41.820;12.808;2022-10-16T07:20:20;23.00;99.90
32839;DHT22;19182;41.820;12.808;2022-10-16T07:22:49;22.70;99.90
32839;DHT22;19182;41.820;12.808;2022-10-16T07:25:15;22.70;99.90
32839;DHT22;19182;41.820;12.808;2022-10-16T07:27:40;22.30;99.90
32839;DHT22;19182;41.820;12.808;2022-10-16T07:32:32;22.50;99.90
32839;DHT22;19182;41.820;12.808;2022-10-16T07:34:59;23.50;99.90
32839;DHT22;19182;41.820;12.808;2022-10-16T07:37:25;24.20;99.90
32839;DHT22;19182;41.820;12.808;2022-10-16T07:39:51;24.30;99.90
32839;DHT22;19182;41.820;12.808;2022-10-16T07:42:17;23.90;99.90
32839;DHT22;19182;41.820;12.808;2022-10-16T07:44:43;23.70;99.90
32839;DHT22;19182;41.820;12.808;2022-10-16T07:47:09;24.10;99.90
32839;DHT22;19182;41.820;12.808;2022-10-16T07:49:34;24.70;99.90
32839;DHT22;19182;41.820;12.808;2022-10-16T07:52:00;25.00;99.90
32839;DHT22;19182;41.820;12.808;2022-10-16T07:54:26;24.00;99.90
32839;DHT22;19182;41.820;12.808;2022-10-16T07:56:52;25.00;99.90
32839;DHT22;19182;41.820;12.808;2022-10-16T07:59:18;24.50;99.90
32839;DHT22;19182;41.820;12.808;2022-10-16T08:01:45;24.40;99.90
32839;DHT22;19182;41.820;12.808;2022-10-16T08:04:11;24.10;99.90
32839;DHT22;19182;41.820;12.808;2022-10-16T08:06:39;24.40;99.90
32839;DHT22;19182;41.820;12.808;2022-10-16T08:09:09;24.80;99.90
32839;DHT22;19182;41.820;12.808;2022-10-16T08:11:34;24.80;99.90
32839;DHT22;19182;41.820;12.808;2022-10-16T08:14:00;25.80;99.90
32839;DHT22;19182;41.820;12.808;2022-10-16T08:16:26;21.90;99.90
32839;DHT22;19182;41.820;12.808;2022-10-16T08:18:52;25.80;99.90
32839;DHT22;19182;41.820;12.808;2022-10-16T08:21:19;25.70;99.90
32839;DHT22;19182;41.820;12.808;2022-10-16T08:23:52;26.00;99.90
32839;DHT22;19182;41.820;12.808;2022-10-16T08:26:18;27.10;99.90
32839;DHT22;19182;41.820;12.808;2022-10-16T08:28:45;26.70;99.90
32839;DHT22;19182;41.820;12.808;2022-10-16T08:31:31;26.40;99.90
32839;DHT22;19182;41.820;12.808;2022-10-16T08:33:56;27.00;99.90
32839;DHT22;19182;41.820;12.808;2022-10-16T08:36:22;27.60;99.90
32839;DHT22;19182;41.820;12.808;2022-10-16T08:38:49;27.60;99.90
32839;DHT22;19182;41.820;12.808;2022-10-16T08:41:23;28.00;99.90
32839;DHT22;19182;41.820;12.808;2022-10-16T08:44:31;28.50;99.90
32839;DHT22;19182;41.820;12.808;2022-10-16T08:48:25;29.60;99.90
32839;DHT22;19182;41.820;12.808;2022-10-16T08:50:24;28.20;99.90
32839;DHT22;19182;41.820;12.808;2022-10-16T08:52:51;28.00;99.90
32839;DHT22;19182;41.820;12.808;2022-10-16T08:55:38;29.60;99.90
32839;DHT22;19182;41.820;12.808;2022-10-16T08:58:13;30.60;99.90
32839;DHT22;19182;41.820;12.808;2022-10-16T09:00:39;29.60;99.90
32839;DHT22;19182;41.820;12.808;2022-10-16T09:06:14;29.80;99.90
32839;DHT22;19182;41.820;12.808;2022-10-16T09:11:57;30.40;99.90
32839;DHT22;19182;41.820;12.808;2022-10-16T09:17:49;30.50;99.90
32839;DHT22;19182;41.820;12.808;2022-10-16T09:20:51;30.30;99.90
32839;DHT22;19182;41.820;12.808;2022-10-16T09:23:29;31.00;99.90
32839;DHT22;19182;41.820;12.808;2022-10-16T09:25:56;32.30;99.70
32839;DHT22;19182;41.820;12.808;2022-10-16T09:28:23;32.70;99.60
32839;DHT22;19182;41.820;12.808;2022-10-16T09:30:50;32.30;98.90
32839;DHT22;19182;41.820;12.808;2022-10-16T09:33:19;32.60;98.30
32839;DHT22;19182;41.820;12.808;2022-10-16T09:35:53;32.50;97.70
32839;DHT22;19182;41.820;12.808;2022-10-16T09:38:29;33.30;95.40
32839;DHT22;19182;41.820;12.808;2022-10-16T09:40:57;33.70;95.10
32839;DHT22;19182;41.820;12.808;2022-10-16T09:43:24;33.40;95.80
32839;DHT22;19182;41.820;12.808;2022-10-16T09:46:05;34.20;94.70
32839;DHT22;19182;41.820;12.808;2022-10-16T09:48:39;33.70;94.30
32839;DHT22;19182;41.820;12.808;2022-10-16T09:51:30;34.30;93.50
32839;DHT22;19182;41.820;12.808;2022-10-16T09:54:21;35.40;92.60
32839;DHT22;19182;41.820;12.808;2022-10-16T09:56:47;35.90;90.20
32839;DHT22;19182;41.820;12.808;2022-10-16T09:59:19;36.30;87.60
32839;DHT22;19182;41.820;12.808;2022-10-16T10:01:53;36.10;84.00
32839;DHT22;19182;41.820;12.808;2022-10-16T10:04:21;35.20;85.30
32839;DHT22;19182;41.820;12.808;2022-10-16T10:06:50;36.00;84.10
32839;DHT22;19182;41.820;12.808;2022-10-16T10:09:17;36.00;83.70
32839;DHT22;19182;41.820;12.808;2022-10-16T10:11:58;36.00;82.60
32839;DHT22;19182;41.820;12.808;2022-10-16T10:16:53;35.20;83.00
32839;DHT22;19182;41.820;12.808;2022-10-16T10:19:27;35.70;82.70
32839;DHT22;19182;41.820;12.808;2022-10-16T10:21:53;36.10;80.60
32839;DHT22;19182;41.820;12.808;2022-10-16T10:24:19;35.70;80.20
32839;DHT22;19182;41.820;12.808;2022-10-16T10:29:30;35.10;83.30
32839;DHT22;19182;41.820;12.808;2022-10-16T10:32:26;35.70;80.60
32839;DHT22;19182;41.820;12.808;2022-10-16T10:37:41;34.90;82.70
32839;DHT22;19182;41.820;12.808;2022-10-16T10:40:23;35.40;81.60
32839;DHT22;19182;41.820;12.808;2022-10-16T10:45:46;35.50;80.40
32839;DHT22;19182;41.820;12.808;2022-10-16T10:48:26;35.00;82.40
32839;DHT22;19182;41.820;12.808;2022-10-16T10:51:04;34.30;81.60
32839;DHT22;19182;41.820;12.808;2022-10-16T10:54:11;33.90;84.70
32839;DHT22;19182;41.820;12.808;2022-10-16T10:56:49;34.70;82.80
32839;DHT22;19182;41.820;12.808;2022-10-16T11:01:55;35.70;80.00
32839;DHT22;19182;41.820;12.808;2022-10-16T11:04:58;35.80;78.00
32839;DHT22;19182;41.820;12.808;2022-10-16T11:07:32;35.10;79.10
32839;DHT22;19182;41.820;12.808;2022-10-16T11:10:15;33.30;83.00
32839;DHT22;19182;41.820;12.808;2022-10-16T11:12:45;33.10;84.60
32839;DHT22;19182;41.820;12.808;2022-10-16T11:17:52;33.00;82.60
32839;DHT22;19182;41.820;12.808;2022-10-16T11:21:05;33.20;84.90
32839;DHT22;19182;41.820;12.808;2022-10-16T11:23:28;33.50;84.00
32839;DHT22;19182;41.820;12.808;2022-10-16T11:26:04;32.90;85.30
32839;DHT22;19182;41.820;12.808;2022-10-16T11:31:21;32.70;86.00
32839;DHT22;19182;41.820;12.808;2022-10-16T11:39:29;31.00;90.20
32839;DHT22;19182;41.820;12.808;2022-10-16T11:42:11;31.00;90.60
32839;DHT22;19182;41.820;12.808;2022-10-16T11:50:45;29.40;92.90
32839;DHT22;19182;41.820;12.808;2022-10-16T11:56:07;29.00;94.30
32839;DHT22;19182;41.820;12.808;2022-10-16T11:58:39;29.30;94.20
32839;DHT22;19182;41.820;12.808;2022-10-16T12:06:37;30.40;93.40
32839;DHT22;19182;41.820;12.808;2022-10-16T12:09:26;31.20;91.70
32839;DHT22;19182;41.820;12.808;2022-10-16T12:11:52;32.00;90.10
32839;DHT22;19182;41.820;12.808;2022-10-16T12:14:33;32.20;88.60
32839;DHT22;19182;41.820;12.808;2022-10-16T12:20:01;33.10;86.70
32839;DHT22;19182;41.820;12.808;2022-10-16T12:22:29;32.90;85.80
32839;DHT22;19182;41.820;12.808;2022-10-16T12:24:56;32.40;88.70
32839;DHT22;19182;41.820;12.808;2022-10-16T12:27:30;32.60;89.90
32839;DHT22;19182;41.820;12.808;2022-10-16T12:30:00;32.90;87.70
32839;DHT22;19182;41.820;12.808;2022-10-16T12:32:40;33.50;85.60
32839;DHT22;19182;41.820;12.808;2022-10-16T12:35:16;33.60;83.10
32839;DHT22;19182;41.820;12.808;2022-10-16T12:37:44;33.80;84.50
32839;DHT22;19182;41.820;12.808;2022-10-16T12:40:22;33.50;85.70
32839;DHT22;19182;41.820;12.808;2022-10-16T12:42:49;33.50;84.50
32839;DHT22;19182;41.820;12.808;2022-10-16T12:45:31;33.60;84.30
32839;DHT22;19182;41.820;12.808;2022-10-16T12:48:04;33.80;84.50
32839;DHT22;19182;41.820;12.808;2022-10-16T12:50:33;34.00;82.40
32839;DHT22;19182;41.820;12.808;2022-10-16T12:53:00;34.10;81.50
32839;DHT22;19182;41.820;12.808;2022-10-16T12:55:26;33.60;81.10
32839;DHT22;19182;41.820;12.808;2022-10-16T13:06:58;30.20;88.80
32839;DHT22;19182;41.820;12.808;2022-10-16T13:13:33;28.60;91.90
32839;DHT22;19182;41.820;12.808;2022-10-16T13:15:47;28.10;92.80
32839;DHT22;19182;41.820;12.808;2022-10-16T13:29:14;25.90;97.20
32839;DHT22;19182;41.820;12.808;2022-10-16T13:31:40;25.80;98.00
32839;DHT22;19182;41.820;12.808;2022-10-16T13:34:14;25.70;99.00
32839;DHT22;19182;41.820;12.808;2022-10-16T13:36:50;25.60;99.10
32839;DHT22;19182;41.820;12.808;2022-10-16T13:42:09;25.40;99.90
32839;DHT22;19182;41.820;12.808;2022-10-16T13:44:46;25.10;99.90
32839;DHT22;19182;41.820;12.808;2022-10-16T13:47:17;25.00;99.90
32839;DHT22;19182;41.820;12.808;2022-10-16T13:49:47;24.90;99.90
32839;DHT22;19182;41.820;12.808;2022-10-16T13:52:22;24.70;99.90
32839;DHT22;19182;41.820;12.808;2022-10-16T13:54:48;24.60;99.90
32839;DHT22;19182;41.820;12.808;2022-10-16T13:57:15;24.40;99.90
32839;DHT22;19182;41.820;12.808;2022-10-16T13:59:41;24.30;99.90
32839;DHT22;19182;41.820;12.808;2022-10-16T14:04:53;24.20;99.90
32839;DHT22;19182;41.820;12.808;2022-10-16T14:07:30;24.10;99.90
32839;DHT22;19182;41.820;12.808;2022-10-16T14:10:00;24.20;99.90
32839;DHT22;19182;41.820;12.808;2022-10-16T14:12:26;24.50;99.90
32839;DHT22;19182;41.820;12.808;2022-10-16T14:14:53;24.10;99.90
32839;DHT22;19182;41.820;12.808;2022-10-16T14:17:28;24.20;99.90
32839;DHT22;19182;41.820;12.808;2022-10-16T14:19:57;24.10;99.90
32839;DHT22;19182;41.820;12.808;2022-10-16T14:22:30;24.20;99.90
32839;DHT22;19182;41.820;12.808;2022-10-16T14:24:59;24.00;99.90
32839;DHT22;19182;41.820;12.808;2022-10-16T14:27:35;23.90;99.90
32839;DHT22;19182;41.820;12.808;2022-10-16T14:32:36;23.80;99.90
32839;DHT22;19182;41.820;12.808;2022-10-16T14:35:02;21.80;99.90
32839;DHT22;19182;41.820;12.808;2022-10-16T14:37:29;23.50;99.90
32839;DHT22;19182;41.820;12.808;2022-10-16T14:39:55;22.20;99.90
32839;DHT22;19182;41.820;12.808;2022-10-16T14:42:26;23.30;99.90
32839;DHT22;19182;41.820;12.808;2022-10-16T14:44:53;23.20;99.90
32839;DHT22;19182;41.820;12.808;2022-10-16T14:47:21;23.00;99.90
32839;DHT22;19182;41.820;12.808;2022-10-16T14:49:51;22.80;99.90
32839;DHT22;19182;41.820;12.808;2022-10-16T14:52:18;22.50;99.90
32839;DHT22;19182;41.820;12.808;2022-10-16T14:54:48;22.80;99.90
32839;DHT22;19182;41.820;12.808;2022-10-16T14:57:22;22.80;99.90
32839;DHT22;19182;41.820;12.808;2022-10-16T14:59:49;22.80;99.90
32839;DHT22;19182;41.820;12.808;2022-10-16T15:02:31;22.80;99.90
32839;DHT22;19182;41.820;12.808;2022-10-16T15:07:43;22.80;99.90
32839;DHT22;19182;41.820;12.808;2022-10-16T15:10:09;22.80;99.90
32839;DHT22;19182;41.820;12.808;2022-10-16T15:12:35;22.70;99.90
32839;DHT22;19182;41.820;12.808;2022-10-16T15:15:01;20.20;99.90
32839;DHT22;19182;41.820;12.808;2022-10-16T15:17:27;22.50;99.90
32839;DHT22;19182;41.820;12.808;2022-10-16T15:19:53;22.60;99.90
32839;DHT22;19182;41.820;12.808;2022-10-16T15:22:18;22.70;99.90
32839;DHT22;19182;41.820;12.808;2022-10-16T15:27:10;22.60;99.90
32839;DHT22;19182;41.820;12.808;2022-10-16T15:29:36;22.50;99.90
32839;DHT22;19182;41.820;12.808;2022-10-16T15:32:01;22.40;99.90
32839;DHT22;19182;41.820;12.808;2022-10-16T15:34:28;22.30;99.90
32839;DHT22;19182;41.820;12.808;2022-10-16T15:39:23;22.10;99.90
32839;DHT22;19182;41.820;12.808;2022-10-16T15:41:50;22.10;99.90
32839;DHT22;19182;41.820;12.808;2022-10-16T15:44:19;21.90;99.90
32839;DHT22;19182;41.820;12.808;2022-10-16T15:46:48;21.80;99.90
32839;DHT22;19182;41.820;12.808;2022-10-16T15:49:14;21.70;99.90
32839;DHT22;19182;41.820;12.808;2022-10-16T15:51:41;21.50;99.90
32839;DHT22;19182;41.820;12.808;2022-10-16T15:54:07;21.50;99.90
32839;DHT22;19182;41.820;12.808;2022-10-16T15:56:33;21.30;99.90
32839;DHT22;19182;41.820;12.808;2022-10-16T15:59:00;21.10;99.90
32839;DHT22;19182;41.820;12.808;2022-10-16T16:01:26;21.10;99.90
32839;DHT22;19182;41.820;12.808;2022-10-16T16:03:55;20.90;99.90
32839;DHT22;19182;41.820;12.808;2022-10-16T16:06:22;20.80;99.90
32839;DHT22;19182;41.820;12.808;2022-10-16T16:08:49;20.50;99.90
32839;DHT22;19182;41.820;12.808;2022-10-16T16:11:16;20.40;99.90
32839;DHT22;19182;41.820;12.808;2022-10-16T16:13:43;20.40;99.90
32839;DHT22;19182;41.820;12.808;2022-10-16T16:16:13;20.10;99.90
32839;DHT22;19182;41.820;12.808;2022-10-16T16:18:39;20.00;99.90
32839;DHT22;19182;41.820;12.808;2022-10-16T16:21:06;19.80;99.90
32839;DHT22;19182;41.820;12.808;2022-10-16T16:26:24;19.60;99.90
32839;DHT22;19182;41.820;12.808;2022-10-16T16:28:54;19.70;99.90
32839;DHT22;19182;41.820;12.808;2022-10-16T16:31:24;19.40;99.90
32839;DHT22;19182;41.820;12.808;2022-10-16T16:33:50;19.20;99.90
32839;DHT22;19182;41.820;12.808;2022-10-16T16:36:16;19.10;99.90
32839;DHT22;19182;41.820;12.808;2022-10-16T16:38:44;19.00;99.90
32839;DHT22;19182;41.820;12.808;2022-10-16T16:41:18;18.90;99.90
32839;DHT22;19182;41.820;12.808;2022-10-16T16:46:11;18.70;99.90
32839;DHT22;19182;41.820;12.808;2022-10-16T16:48:37;18.40;99.90
32839;DHT22;19182;41.820;12.808;2022-10-16T16:51:05;18.50;99.90
32839;DHT22;19182;41.820;12.808;2022-10-16T16:53:35;18.30;99.90
32839;DHT22;19182;41.820;12.808;2022-10-16T16:56:03;18.20;99.90
32839;DHT22;19182;41.820;12.808;2022-10-16T16:58:29;18.10;99.90
32839;DHT22;19182;41.820;12.808;2022-10-16T17:00:59;18.00;99.90
32839;DHT22;19182;41.820;12.808;2022-10-16T17:03:29;17.90;99.90
32839;DHT22;19182;41.820;12.808;2022-10-16T17:06:07;18.00;99.90
32839;DHT22;19182;41.820;12.808;2022-10-16T17:08:38;17.80;99.90
32839;DHT22;19182;41.820;12.808;2022-10-16T17:11:04;17.70;99.90
32839;DHT22;19182;41.820;12.808;2022-10-16T17:13:34;17.60;99.90
32839;DHT22;19182;41.820;12.808;2022-10-16T17:16:04;17.60;99.90
32839;DHT22;19182;41.820;12.808;2022-10-16T17:18:30;17.50;99.90
32839;DHT22;19182;41.820;12.808;2022-10-16T17:21:01;17.40;99.90
32839;DHT22;19182;41.820;12.808;2022-10-16T17:23:27;17.30;99.90
32839;DHT22;19182;41.820;12.808;2022-10-16T17:25:53;17.30;99.90
32839;DHT22;19182;41.820;12.808;2022-10-16T17:28:19;17.30;99.90
32839;DHT22;19182;41.820;12.808;2022-10-16T17:30:45;17.40;99.90
32839;DHT22;19182;41.820;12.808;2022-10-16T17:33:11;17.40;99.90
32839;DHT22;19182;41.820;12.808;2022-10-16T17:35:40;17.50;99.90
32839;DHT22;19182;41.820;12.808;2022-10-16T17:38:05;17.50;99.90
32839;DHT22;19182;41.820;12.808;2022-10-16T17:40:32;17.60;99.90
32839;DHT22;19182;41.820;12.808;2022-10-16T17:42:57;17.70;99.90
32839;DHT22;19182;41.820;12.808;2022-10-16T17:45:25;17.70;99.90
32839;DHT22;19182;41.820;12.808;2022-10-16T17:47:51;17.60;99.90
32839;DHT22;19182;41.820;12.808;2022-10-16T17:50:18;17.70;99.90
32839;DHT22;19182;41.820;12.808;2022-10-16T17:52:44;17.70;99.90
32839;DHT22;19182;41.820;12.808;2022-10-16T17:55:10;17.70;99.90
32839;DHT22;19182;41.820;12.808;2022-10-16T17:57:38;17.60;99.90
32839;DHT22;19182;41.820;12.808;2022-10-16T18:00:05;17.60;99.90
32839;DHT22;19182;41.820;12.808;2022-10-16T18:02:33;17.60;99.90
32839;DHT22;19182;41.820;12.808;2022-10-16T18:04:59;17.40;99.90
32839;DHT22;19182;41.820;12.808;2022-10-16T18:07:26;17.30;99.90
32839;DHT22;19182;41.820;12.808;2022-10-16T18:09:52;17.30;99.90
32839;DHT22;19182;41.820;12.808;2022-10-16T18:12:23;17.20;99.90
32839;DHT22;19182;41.820;12.808;2022-10-16T18:17:16;17.10;99.90